createdAt,value
2022-09-16T00:00:30.353Z,96.84
2022-09-16T00:02:58.310Z,96.77
2022-09-16T00:05:25.486Z,95.52
2022-09-16T00:07:52.723Z,96.37
2022-09-16T00:10:19.405Z,95.44
2022-09-16T00:12:46.183Z,93.94
2022-09-16T00:15:12.926Z,94.21
2022-09-16T00:17:39.747Z,93.74
2022-09-16T00:20:09.489Z,93.73
2022-09-16T00:22:36.226Z,93.01
2022-09-16T00:25:03.050Z,92.27
2022-09-16T00:27:29.650Z,92.25
2022-09-16T00:29:56.268Z,92.47
2022-09-16T00:32:25.006Z,91.04
2022-09-16T00:34:51.961Z,91.96
2022-09-16T00:37:18.846Z,92.40
2022-09-16T00:39:48.429Z,92.86
2022-09-16T00:42:15.551Z,92.67
2022-09-16T00:45:12.695Z,92.95
2022-09-16T00:47:47.359Z,92.74
2022-09-16T00:50:25.468Z,93.27
2022-09-16T00:52:53.906Z,92.44
2022-09-16T00:55:27.038Z,93.15
2022-09-16T00:57:57.570Z,93.60
2022-09-16T01:00:24.182Z,93.49
2022-09-16T01:02:51.926Z,93.54
2022-09-16T01:05:22.068Z,93.79
2022-09-16T01:07:51.418Z,93.77
2022-09-16T01:10:21.744Z,93.42
2022-09-16T01:12:57.804Z,94.23
2022-09-16T01:15:30.971Z,94.12
2022-09-16T01:18:31.270Z,94.21
2022-09-16T01:21:15.717Z,93.58
2022-09-16T01:24:43.749Z,93.82
2022-09-16T01:27:52.215Z,94.04
2022-09-16T01:30:48.846Z,94.56
2022-09-16T01:33:58.757Z,94.66
2022-09-16T01:36:53.522Z,94.62
2022-09-16T01:39:38.478Z,95.27
2022-09-16T01:42:18.507Z,95.64
2022-09-16T01:45:19.117Z,95.37
2022-09-16T01:47:57.572Z,94.41
2022-09-16T01:50:33.453Z,95.02
2022-09-16T01:53:22.663Z,94.33
2022-09-16T01:55:58.730Z,93.98
2022-09-16T01:58:53.539Z,94.08
2022-09-16T02:01:27.047Z,94.96
2022-09-16T02:04:03.308Z,95.61
2022-09-16T02:06:31.357Z,95.56
2022-09-16T02:09:02.476Z,95.08
2022-09-16T02:11:29.782Z,95.53
2022-09-16T02:14:06.381Z,94.95
2022-09-16T02:16:38.204Z,94.45
2022-09-16T02:19:15.827Z,95.62
2022-09-16T02:21:45.803Z,95.07
2022-09-16T02:24:18.192Z,95.41
2022-09-16T02:26:48.874Z,95.23
2022-09-16T02:29:21.522Z,95.33
2022-09-16T02:31:53.601Z,96.13
2022-09-16T02:34:38.165Z,95.78
2022-09-16T02:37:10.373Z,96.24
2022-09-16T02:39:40.996Z,96.42
2022-09-16T02:42:08.072Z,96.43
2022-09-16T02:44:34.916Z,97.21
2022-09-16T02:47:39.435Z,97.33
2022-09-16T02:50:18.170Z,97.24
2022-09-16T02:53:01.800Z,97.48
2022-09-16T02:56:13.899Z,97.97
2022-09-16T02:58:41.055Z,98.81
2022-09-16T03:01:13.125Z,98.83
2022-09-16T03:03:40.932Z,99.09
2022-09-16T03:06:17.310Z,99.34
2022-09-16T03:08:45.680Z,99.11
2022-09-16T03:11:53.875Z,98.72
2022-09-16T03:14:53.752Z,98.34
2022-09-16T03:18:01.837Z,98.34
2022-09-16T03:21:03.671Z,98.41
2022-09-16T03:24:14.750Z,98.51
2022-09-16T03:27:18.863Z,98.42
2022-09-16T03:30:07.352Z,98.83
2022-09-16T03:32:56.935Z,98.75
2022-09-16T03:35:46.503Z,98.09
2022-09-16T03:38:14.540Z,98.08
2022-09-16T03:40:42.733Z,98.08
2022-09-16T03:43:13.570Z,98.31
2022-09-16T03:45:43.315Z,98.38
2022-09-16T03:48:11.446Z,98.04
2022-09-16T03:50:38.252Z,97.97
2022-09-16T03:53:05.062Z,98.91
2022-09-16T03:55:31.876Z,99.19
2022-09-16T03:57:58.456Z,99.79
2022-09-16T04:00:25.040Z,99.64
2022-09-16T04:02:51.888Z,99.43
2022-09-16T04:05:18.538Z,99.11
2022-09-16T04:07:45.310Z,98.14
2022-09-16T04:10:12.531Z,97.75
2022-09-16T04:12:39.433Z,97.46
2022-09-16T04:15:06.629Z,97.78
2022-09-16T04:17:34.040Z,98.81
2022-09-16T04:20:00.876Z,99.46
2022-09-16T04:22:31.593Z,100.00
2022-09-16T04:24:58.488Z,100.00
2022-09-16T04:27:25.302Z,100.00
2022-09-16T04:29:51.862Z,100.00
2022-09-16T04:32:18.625Z,100.00
2022-09-16T04:34:45.856Z,100.00
2022-09-16T04:37:12.408Z,100.00
2022-09-16T04:39:39.132Z,100.00
2022-09-16T04:42:07.017Z,100.00
2022-09-16T04:44:33.598Z,100.00
2022-09-16T04:47:00.610Z,100.00
2022-09-16T04:49:27.195Z,100.00
2022-09-16T04:51:53.757Z,100.00
2022-09-16T04:54:20.261Z,100.00
2022-09-16T04:56:46.912Z,100.00
2022-09-16T04:59:13.442Z,100.00
2022-09-16T05:01:40.655Z,100.00
2022-09-16T05:04:08.313Z,100.00
2022-09-16T05:06:37.343Z,100.00
2022-09-16T05:09:04.571Z,100.00
2022-09-16T05:11:33.981Z,100.00
2022-09-16T05:14:02.213Z,100.00
2022-09-16T05:16:29.798Z,100.00
2022-09-16T05:18:58.969Z,99.52
2022-09-16T05:21:27.642Z,99.58
2022-09-16T05:23:55.963Z,99.26
2022-09-16T05:26:24.566Z,98.84
2022-09-16T05:28:52.026Z,98.41
2022-09-16T05:31:19.982Z,98.07
2022-09-16T05:34:08.963Z,99.50
2022-09-16T05:36:37.692Z,99.80
2022-09-16T05:39:22.751Z,99.65
2022-09-16T05:41:53.746Z,99.85
2022-09-16T05:44:20.513Z,99.86
2022-09-16T05:46:47.026Z,99.75
2022-09-16T05:49:13.871Z,99.29
2022-09-16T05:51:43.830Z,100.00
2022-09-16T05:54:10.927Z,99.94
2022-09-16T05:56:37.766Z,99.97
2022-09-16T05:59:04.630Z,99.78
2022-09-16T06:01:33.762Z,99.74
2022-09-16T06:04:02.547Z,99.00
2022-09-16T06:06:31.970Z,98.85
2022-09-16T06:09:01.245Z,99.07
2022-09-16T06:11:29.123Z,98.39
2022-09-16T06:14:00.248Z,98.34
2022-09-16T06:16:28.123Z,97.91
2022-09-16T06:18:55.818Z,98.58
2022-09-16T06:21:23.389Z,98.17
2022-09-16T06:23:50.292Z,97.91
2022-09-16T06:26:19.208Z,97.80
2022-09-16T06:28:47.142Z,98.03
2022-09-16T06:31:15.892Z,97.59
2022-09-16T06:33:43.322Z,96.95
2022-09-16T06:36:33.830Z,96.63
2022-09-16T06:39:00.483Z,96.26
2022-09-16T06:41:27.194Z,95.70
2022-09-16T06:43:54.049Z,95.51
2022-09-16T06:46:23.606Z,94.95
2022-09-16T06:48:52.888Z,95.05
2022-09-16T06:51:22.715Z,94.79
2022-09-16T06:53:50.211Z,94.05
2022-09-16T06:56:19.489Z,94.05
2022-09-16T06:58:48.628Z,93.32
2022-09-16T07:01:20.922Z,92.41
2022-09-16T07:03:48.681Z,91.63
2022-09-16T07:06:17.736Z,91.25
2022-09-16T07:08:46.653Z,89.17
2022-09-16T07:11:19.130Z,89.14
2022-09-16T07:13:49.540Z,89.69
2022-09-16T07:16:19.019Z,89.89
2022-09-16T07:18:46.903Z,90.59
2022-09-16T07:21:16.058Z,91.00
2022-09-16T07:23:44.031Z,91.14
2022-09-16T07:26:22.553Z,90.19
2022-09-16T07:28:50.438Z,91.27
2022-09-16T07:31:24.531Z,90.19
2022-09-16T07:33:53.218Z,90.84
2022-09-16T07:36:23.227Z,90.42
2022-09-16T07:38:51.349Z,91.45
2022-09-16T07:41:23.047Z,91.68
2022-09-16T07:43:50.708Z,90.44
2022-09-16T07:46:19.896Z,91.57
2022-09-16T07:48:48.197Z,91.73
2022-09-16T07:51:22.388Z,91.74
2022-09-16T07:53:54.351Z,92.56
2022-09-16T07:56:25.439Z,92.18
2022-09-16T07:58:53.209Z,92.71
2022-09-16T08:01:20.187Z,93.06
2022-09-16T08:03:48.447Z,93.00
2022-09-16T08:06:18.182Z,93.58
2022-09-16T08:08:45.636Z,94.86
2022-09-16T08:11:14.416Z,94.69
2022-09-16T08:13:42.698Z,95.20
2022-09-16T08:16:13.937Z,94.46
2022-09-16T08:18:41.631Z,95.15
2022-09-16T08:21:10.737Z,93.70
2022-09-16T08:23:38.373Z,94.09
2022-09-16T08:26:06.320Z,94.10
2022-09-16T08:28:45.024Z,94.97
2022-09-16T08:31:20.066Z,94.76
2022-09-16T08:33:47.286Z,94.91
2022-09-16T08:36:22.884Z,94.33
2022-09-16T08:38:51.570Z,94.56
2022-09-16T08:41:42.738Z,94.47
2022-09-16T08:44:21.120Z,94.39
2022-09-16T08:46:58.993Z,94.88
2022-09-16T08:49:42.581Z,95.70
2022-09-16T08:52:29.839Z,96.07
2022-09-16T08:55:12.221Z,95.82
2022-09-16T08:57:43.505Z,95.16
2022-09-16T09:00:18.675Z,95.09
2022-09-16T09:02:56.808Z,93.98
2022-09-16T09:05:42.170Z,94.53
2022-09-16T09:08:53.145Z,94.19
2022-09-16T09:11:53.584Z,94.98
2022-09-16T09:14:40.463Z,95.59
2022-09-16T09:17:25.710Z,94.87
2022-09-16T09:20:07.212Z,94.12
2022-09-16T09:23:19.090Z,93.70
2022-09-16T09:25:54.900Z,94.08
2022-09-16T09:28:52.368Z,92.87
2022-09-16T09:31:53.031Z,91.87
2022-09-16T09:34:41.055Z,90.63
2022-09-16T09:37:38.215Z,90.67
2022-09-16T09:40:17.709Z,90.09
2022-09-16T09:42:52.317Z,90.42
2022-09-16T09:45:25.026Z,89.94
2022-09-16T09:48:01.409Z,89.80
2022-09-16T09:50:41.690Z,89.10
2022-09-16T09:53:29.548Z,88.29
2022-09-16T09:56:37.786Z,88.53
2022-09-16T09:59:42.721Z,89.49
2022-09-16T10:02:22.415Z,89.08
2022-09-16T10:04:49.848Z,89.33
2022-09-16T10:07:21.062Z,88.48
2022-09-16T10:10:19.305Z,87.64
2022-09-16T10:12:45.921Z,85.90
2022-09-16T10:15:22.501Z,86.17
2022-09-16T10:17:51.718Z,84.82
2022-09-16T10:20:37.092Z,83.35
2022-09-16T10:23:11.696Z,81.62
2022-09-16T10:25:39.011Z,80.78
2022-09-16T10:28:26.396Z,81.29
2022-09-16T10:30:55.572Z,80.53
2022-09-16T10:33:36.259Z,80.00
2022-09-16T10:36:06.635Z,79.74
2022-09-16T10:38:46.810Z,79.86
2022-09-16T10:41:22.392Z,80.44
2022-09-16T10:43:55.205Z,76.58
2022-09-16T10:46:21.872Z,78.38
2022-09-16T10:48:50.444Z,76.66
2022-09-16T10:51:25.618Z,76.40
2022-09-16T10:53:57.919Z,77.20
2022-09-16T10:56:31.821Z,77.35
2022-09-16T10:59:13.161Z,76.76
2022-09-16T11:02:26.063Z,77.38
2022-09-16T11:05:16.562Z,79.18
2022-09-16T11:07:59.790Z,79.44
2022-09-16T11:11:09.599Z,79.75
2022-09-16T11:13:58.178Z,78.96
2022-09-16T11:17:23.410Z,79.53
2022-09-16T11:20:30.196Z,79.60
2022-09-16T11:23:33.814Z,81.02
2022-09-16T11:26:41.978Z,79.85
2022-09-16T11:29:33.285Z,83.40
2022-09-16T11:32:35.445Z,85.05
2022-09-16T11:54:00.625Z,88.15
2022-09-16T11:56:50.492Z,85.52
2022-09-16T11:59:46.084Z,86.59
2022-09-16T12:02:39.834Z,84.59
2022-09-16T12:05:23.534Z,82.68
2022-09-16T12:08:22.911Z,83.91
2022-09-16T12:11:27.323Z,81.08
2022-09-16T12:14:08.602Z,81.41
2022-09-16T12:16:57.854Z,82.72
2022-09-16T12:19:30.031Z,84.53
2022-09-16T12:22:06.584Z,83.49
2022-09-16T12:24:43.901Z,85.23
2022-09-16T12:27:38.620Z,82.19
2022-09-16T12:30:17.587Z,81.83
2022-09-16T12:33:11.183Z,82.81
2022-09-16T12:35:41.929Z,82.41
2022-09-16T12:38:17.079Z,81.61
2022-09-16T12:41:06.756Z,83.05
2022-09-16T12:44:30.541Z,83.26
2022-09-16T12:47:47.885Z,80.85
2022-09-16T12:51:00.244Z,81.72
2022-09-16T12:53:50.706Z,82.79
2022-09-16T12:56:43.313Z,82.61
2022-09-16T13:00:01.269Z,79.88
2022-09-16T13:02:34.117Z,80.45
2022-09-16T13:05:18.398Z,78.74
2022-09-16T13:07:50.592Z,79.41
2022-09-16T13:10:54.606Z,80.26
2022-09-16T13:13:45.114Z,82.99
2022-09-16T13:16:11.911Z,83.16
2022-09-16T13:18:38.417Z,83.49
2022-09-16T13:21:29.007Z,84.27
2022-09-16T13:24:25.045Z,84.70
2022-09-16T13:26:51.718Z,86.11
2022-09-16T13:29:43.919Z,85.46
2022-09-16T13:32:38.822Z,86.25
2022-09-16T13:35:20.907Z,85.32
2022-09-16T13:37:49.851Z,83.22
2022-09-16T13:40:18.046Z,83.25
2022-09-16T13:42:44.725Z,83.25
2022-09-16T13:45:40.743Z,83.17
2022-09-16T13:48:19.034Z,81.72
2022-09-16T13:50:57.443Z,80.61
2022-09-16T13:53:30.920Z,80.54
2022-09-16T13:56:25.133Z,80.42
2022-09-16T13:59:24.445Z,80.38
2022-09-16T14:02:36.286Z,78.27
2022-09-16T14:05:51.139Z,77.59
2022-09-16T14:08:37.894Z,78.51
2022-09-16T14:11:30.049Z,79.07
2022-09-16T14:14:15.711Z,80.02
2022-09-16T14:16:53.019Z,79.22
2022-09-16T14:19:28.888Z,79.16
2022-09-16T14:22:16.920Z,79.21
2022-09-16T14:24:45.225Z,80.32
2022-09-16T14:27:36.670Z,79.28
2022-09-16T14:30:14.268Z,77.35
2022-09-16T14:32:41.332Z,76.41
2022-09-16T14:35:18.046Z,77.07
2022-09-16T14:37:47.576Z,76.07
2022-09-16T14:40:16.741Z,78.29
2022-09-16T14:42:52.458Z,76.32
2022-09-16T14:45:20.362Z,75.96
2022-09-16T14:47:52.764Z,76.81
2022-09-16T14:50:23.774Z,77.89
2022-09-16T14:52:59.184Z,79.92
2022-09-16T14:55:30.060Z,79.79
2022-09-16T14:57:58.018Z,80.96
2022-09-16T15:00:47.957Z,81.88
2022-09-16T15:03:42.889Z,83.50
2022-09-16T15:06:15.503Z,84.66
2022-09-16T15:08:48.572Z,85.41
2022-09-16T15:11:46.969Z,87.63
2022-09-16T15:14:14.910Z,87.20
2022-09-16T15:16:47.015Z,90.29
2022-09-16T15:19:29.933Z,90.75
2022-09-16T15:21:57.187Z,92.40
2022-09-16T15:24:31.290Z,92.69
2022-09-16T15:26:59.488Z,93.57
2022-09-16T15:29:30.187Z,95.97
2022-09-16T15:32:14.308Z,95.80
2022-09-16T15:34:43.901Z,96.83
2022-09-16T15:37:33.732Z,99.63
2022-09-16T15:40:11.699Z,99.58
2022-09-16T15:42:38.545Z,98.58
2022-09-16T15:45:16.293Z,98.18
2022-09-16T15:47:57.355Z,96.87
2022-09-16T15:50:26.849Z,97.93
2022-09-16T15:53:28.599Z,92.59
2022-09-16T15:56:28.515Z,92.29
2022-09-16T15:59:00.219Z,92.63
2022-09-16T16:02:00.976Z,90.26
2022-09-16T16:04:32.650Z,90.61
2022-09-16T16:07:08.966Z,90.66
2022-09-16T16:09:41.624Z,91.59
2022-09-16T16:12:11.032Z,92.06
2022-09-16T16:14:39.499Z,91.63
2022-09-16T16:17:19.027Z,91.81
2022-09-16T16:19:50.532Z,90.83
2022-09-16T16:22:18.036Z,91.29
2022-09-16T16:24:45.409Z,90.67
2022-09-16T16:27:11.985Z,91.93
2022-09-16T16:29:39.168Z,92.47
2022-09-16T16:32:11.901Z,92.36
2022-09-16T16:34:54.682Z,92.53
2022-09-16T16:37:44.895Z,92.06
2022-09-16T16:40:08.808Z,92.55
2022-09-16T16:42:35.809Z,92.08
2022-09-16T16:45:02.466Z,92.02
2022-09-16T16:47:29.042Z,92.76
2022-09-16T16:49:55.644Z,91.94
2022-09-16T16:52:22.217Z,92.90
2022-09-16T16:54:48.753Z,92.46
2022-09-16T16:57:15.388Z,92.43
2022-09-16T16:59:41.956Z,92.57
2022-09-16T17:02:11.272Z,92.54
2022-09-16T17:04:37.888Z,93.18
2022-09-16T17:09:51.369Z,93.02
2022-09-16T17:12:18.159Z,93.49
2022-09-16T17:14:44.870Z,93.28
2022-09-16T17:17:11.507Z,93.46
2022-09-16T17:19:38.128Z,92.39
2022-09-16T17:22:04.775Z,91.69
2022-09-16T17:24:31.420Z,90.85
2022-09-16T17:26:57.966Z,92.22
2022-09-16T17:29:24.543Z,91.71
2022-09-16T17:31:51.287Z,90.83
2022-09-16T17:34:18.037Z,92.11
2022-09-16T17:36:46.313Z,91.21
2022-09-16T17:39:15.617Z,90.45
2022-09-16T17:41:43.668Z,91.43
2022-09-16T17:44:11.691Z,91.73
2022-09-16T17:46:39.247Z,91.98
2022-09-16T17:49:09.022Z,91.03
2022-09-16T17:51:36.249Z,91.37
2022-09-16T17:54:03.862Z,91.10
2022-09-16T17:56:30.562Z,90.14
2022-09-16T17:58:57.148Z,90.90
2022-09-16T18:01:26.247Z,91.51
2022-09-16T18:03:54.736Z,91.46
2022-09-16T18:06:32.913Z,90.92
2022-09-16T18:09:00.941Z,90.92
2022-09-16T18:11:27.923Z,89.61
2022-09-16T18:13:56.503Z,89.90
2022-09-16T18:16:24.008Z,89.79
2022-09-16T18:18:53.073Z,90.07
2022-09-16T18:21:21.018Z,90.39
2022-09-16T18:23:49.703Z,90.23
2022-09-16T18:26:16.836Z,90.26
2022-09-16T18:29:08.502Z,90.21
2022-09-16T18:31:32.817Z,90.07
2022-09-16T18:33:59.576Z,89.99
2022-09-16T18:36:28.516Z,90.33
2022-09-16T18:38:59.578Z,89.10
2022-09-16T18:41:31.709Z,90.03
2022-09-16T18:44:00.898Z,88.80
2022-09-16T18:46:34.677Z,89.38
2022-09-16T18:49:01.737Z,88.98
2022-09-16T18:51:30.894Z,89.22
2022-09-16T18:54:02.164Z,88.61
2022-09-16T18:56:32.034Z,89.04
2022-09-16T18:59:21.060Z,89.33
2022-09-16T19:01:48.943Z,88.60
2022-09-16T19:04:18.574Z,88.64
2022-09-16T19:06:48.543Z,89.25
2022-09-16T19:09:17.714Z,88.68
2022-09-16T19:11:44.518Z,88.67
2022-09-16T19:14:15.842Z,89.00
2022-09-16T19:16:44.746Z,88.24
2022-09-16T19:19:14.058Z,88.68
2022-09-16T19:21:42.135Z,88.90
2022-09-16T19:24:14.091Z,88.50
2022-09-16T19:26:42.196Z,88.95
2022-09-16T19:29:09.820Z,89.12
2022-09-16T19:31:40.201Z,89.28
2022-09-16T19:34:07.768Z,89.92
2022-09-16T19:36:35.405Z,90.56
2022-09-16T19:39:03.376Z,90.38
2022-09-16T19:41:32.171Z,90.58
2022-09-16T19:44:01.368Z,91.08
2022-09-16T19:46:29.526Z,90.54
2022-09-16T19:48:56.800Z,90.72
2022-09-16T19:51:24.622Z,90.77
2022-09-16T19:53:53.149Z,90.24
2022-09-16T19:56:28.814Z,90.73
2022-09-16T19:58:55.656Z,90.31
2022-09-16T20:01:27.365Z,90.42
2022-09-16T20:03:54.977Z,89.88
2022-09-16T20:06:24.046Z,90.32
2022-09-16T20:08:58.783Z,90.31
2022-09-16T20:11:31.527Z,89.60
2022-09-16T20:14:08.244Z,89.89
2022-09-16T20:16:37.788Z,90.06
2022-09-16T20:19:06.312Z,90.22
2022-09-16T20:21:35.154Z,90.08
2022-09-16T20:24:05.737Z,90.29
2022-09-16T20:26:33.026Z,90.46
2022-09-16T20:29:00.351Z,90.38
2022-09-16T20:31:31.373Z,89.93
2022-09-16T20:33:58.620Z,91.16
2022-09-16T20:36:30.474Z,91.90
2022-09-16T20:38:59.700Z,91.38
2022-09-16T20:41:28.940Z,91.22
2022-09-16T20:43:55.628Z,90.65
2022-09-16T20:46:26.414Z,90.56
2022-09-16T20:48:57.492Z,90.73
2022-09-16T20:51:27.086Z,91.12
2022-09-16T20:54:00.840Z,91.36
2022-09-16T20:56:37.455Z,92.25
2022-09-16T20:59:07.473Z,91.96
2022-09-16T21:01:34.996Z,92.03
2022-09-16T21:04:05.213Z,93.27
2022-09-16T21:06:34.649Z,93.32
2022-09-16T21:09:05.302Z,92.34
2022-09-16T21:11:32.394Z,92.47
2022-09-16T21:14:06.959Z,91.03
2022-09-16T21:16:36.012Z,90.74
2022-09-16T21:19:05.167Z,90.09
2022-09-16T21:21:32.143Z,89.83
2022-09-16T21:24:01.317Z,89.88
2022-09-16T21:26:31.047Z,89.66
2022-09-16T21:29:03.305Z,89.61
2022-09-16T21:31:33.543Z,89.61
2022-09-16T21:34:03.042Z,89.58
2022-09-16T21:36:30.359Z,89.03
2022-09-16T21:38:57.633Z,88.58
2022-09-16T21:41:25.295Z,88.09
2022-09-16T21:43:55.631Z,87.55
2022-09-16T21:46:25.874Z,87.64
2022-09-16T21:48:56.288Z,87.26
2022-09-16T21:51:23.523Z,87.15
2022-09-16T21:53:50.264Z,87.39
2022-09-16T21:56:21.921Z,86.99
2022-09-16T21:58:50.130Z,87.33
2022-09-16T22:01:28.302Z,86.84
2022-09-16T22:03:57.344Z,87.31
2022-09-16T22:06:25.635Z,87.86
2022-09-16T22:08:55.932Z,88.00
2022-09-16T22:11:24.612Z,87.94
2022-09-16T22:13:51.526Z,87.51
2022-09-16T22:16:26.910Z,87.30
2022-09-16T22:19:01.731Z,87.08
2022-09-16T22:21:31.069Z,87.31
2022-09-16T22:23:59.596Z,86.98
2022-09-16T22:26:27.155Z,87.01
2022-09-16T22:28:54.203Z,86.72
2022-09-16T22:31:27.347Z,86.86
2022-09-16T22:33:55.554Z,86.58
2022-09-16T22:36:26.921Z,87.04
2022-09-16T22:38:55.815Z,86.98
2022-09-16T22:41:24.145Z,87.42
2022-09-16T22:43:51.979Z,87.52
2022-09-16T22:46:21.189Z,87.55
2022-09-16T22:48:49.038Z,86.81
2022-09-16T22:51:17.271Z,87.24
2022-09-16T22:53:45.029Z,86.43
2022-09-16T22:56:14.545Z,87.34
2022-09-16T22:58:43.870Z,86.96
2022-09-16T23:01:16.725Z,86.59
2022-09-16T23:03:44.684Z,86.58
2022-09-16T23:06:14.000Z,86.44
2022-09-16T23:08:45.286Z,86.95
2022-09-16T23:11:14.636Z,86.62
2022-09-16T23:13:42.714Z,86.95
2022-09-16T23:16:15.978Z,87.66
2022-09-16T23:18:43.905Z,88.10
2022-09-16T23:21:12.669Z,87.47
2022-09-16T23:23:42.302Z,87.77
2022-09-16T23:26:12.424Z,88.24
2022-09-16T23:28:39.440Z,88.15
2022-09-16T23:31:17.494Z,87.62
2022-09-16T23:33:44.911Z,87.14
2022-09-16T23:36:14.025Z,87.50
2022-09-16T23:38:41.950Z,86.68
2022-09-16T23:41:13.928Z,87.53
2022-09-16T23:43:41.903Z,87.28
2022-09-16T23:46:09.609Z,86.66
2022-09-16T23:48:36.979Z,85.99
2022-09-16T23:51:05.046Z,85.86
2022-09-16T23:53:32.066Z,85.97
2022-09-16T23:55:58.726Z,86.34
2022-09-16T23:58:25.377Z,86.54
